Time;durP1;ratioP1;P1;durP2;ratioP2;P2;SDS_P1;SDS_P2;PMS_P1;PMS_P2;Temp;Humidity;BMP_temperature;BMP_pressure;BME280_temperature;BME280_humidity;BME280_pressure;Samples;Min_cycle;Max_cycle;Signal;HPM_P1;HPM_P2
2023/12/01 00:00:31;;;;;;;62.20;28.07;;;3.40;1.00;;;;;;5011179;28;20569;-89
2023/12/01 00:02:57;;;;;;;56.33;26.70;;;3.40;1.00;;;;;;5011287;28;20206;-90
2023/12/01 00:05:23;;;;;;;62.50;26.40;;;3.50;99.90;;;;;;5009919;28;20540;-89
2023/12/01 00:07:48;;;;;;;67.13;31.80;;;3.60;99.90;;;;;;5010232;28;20214;-90
2023/12/01 00:10:14;;;;;;;71.70;29.63;;;3.60;1.00;;;;;;5009850;28;20191;-89
2023/12/01 00:12:39;;;;;;;64.77;29.83;;;3.70;35.00;;;;;;5008195;28;20183;-90
2023/12/01 00:15:05;;;;;;;68.20;30.43;;;3.60;1.00;;;;;;5010728;28;20568;-90
2023/12/01 00:17:32;;;;;;;71.43;31.88;;;3.60;1.00;;;;;;5010800;28;20222;-90
2023/12/01 00:19:58;;;;;;;64.25;29.27;;;3.60;99.90;;;;;;5010335;28;20186;-90
2023/12/01 00:22:23;;;;;;;68.53;30.50;;;3.60;99.90;;;;;;5011164;28;20183;-90
2023/12/01 00:24:49;;;;;;;72.30;31.87;;;3.70;99.90;;;;;;5011011;28;20206;-90
2023/12/01 00:27:14;;;;;;;62.30;29.90;;;3.70;99.90;;;;;;5009929;28;20202;-89
2023/12/01 00:29:40;;;;;;;77.27;30.97;;;3.60;26.00;;;;;;5004630;28;20437;-89
2023/12/01 00:32:06;;;;;;;65.93;31.30;;;3.60;99.90;;;;;;5009225;28;20183;-90
2023/12/01 00:34:31;;;;;;;71.47;32.30;;;3.50;1.00;;;;;;5011605;28;20192;-90
2023/12/01 00:36:57;;;;;;;67.07;28.20;;;3.30;99.90;;;;;;5010781;28;20492;-90
2023/12/01 00:39:22;;;;;;;62.50;29.90;;;3.20;99.90;;;;;;5011016;28;20236;-88
2023/12/01 00:41:48;;;;;;;73.00;31.20;;;3.20;99.90;;;;;;5006806;28;20561;-89
2023/12/01 00:44:14;;;;;;;60.63;28.13;;;3.10;99.90;;;;;;5008642;28;20214;-89
2023/12/01 00:46:40;;;;;;;60.33;29.53;;;3.00;1.00;;;;;;5011308;28;20548;-89
2023/12/01 00:49:05;;;;;;;80.27;31.60;;;2.90;1.00;;;;;;5011227;28;20262;-89
2023/12/01 00:51:31;;;;;;;63.77;30.97;;;2.90;1.00;;;;;;5010658;28;20655;-89
2023/12/01 00:53:56;;;;;;;67.33;28.50;;;2.80;1.00;;;;;;5010376;28;20650;-89
2023/12/01 00:56:22;;;;;;;75.83;32.80;;;2.80;99.90;;;;;;5015330;28;20269;-89
2023/12/01 00:58:47;;;;;;;70.63;28.70;;;2.90;99.90;;;;;;5009062;28;20207;-89
2023/12/01 01:01:13;;;;;;;64.60;29.37;;;3.00;99.90;;;;;;5011988;28;20184;-89
2023/12/01 01:03:39;;;;;;;57.00;27.10;;;3.00;99.90;;;;;;5020826;28;20855;-90
2023/12/01 01:06:04;;;;;;;69.73;31.67;;;3.10;99.90;;;;;;5016592;28;20181;-89
2023/12/01 01:08:30;;;;;;;72.07;29.50;;;3.20;63.50;;;;;;5017902;28;20207;-90
2023/12/01 01:10:56;;;;;;;64.30;27.40;;;3.20;66.50;;;;;;5011788;28;20179;-89
2023/12/01 01:13:25;;;;;;;61.63;27.85;;;3.20;49.80;;;;;;5016201;28;20187;-89
2023/12/01 01:15:51;;;;;;;70.15;29.23;;;3.20;1.20;;;;;;5014813;28;20577;-89
2023/12/01 01:18:16;;;;;;;60.57;27.53;;;3.30;37.70;;;;;;5015772;28;20218;-88
2023/12/01 01:20:41;;;;;;;59.30;25.67;;;3.30;17.00;;;;;;5018496;28;20199;-90
2023/12/01 01:23:07;;;;;;;61.37;26.80;;;3.30;1.00;;;;;;5010105;28;20586;-90
2023/12/01 01:25:33;;;;;;;64.20;26.30;;;3.20;99.90;;;;;;5010577;28;20270;-90
2023/12/01 01:27:58;;;;;;;69.60;27.73;;;3.10;99.90;;;;;;5008627;28;20211;-88
2023/12/01 01:30:24;;;;;;;60.90;28.10;;;3.20;1.00;;;;;;5009059;28;20183;-89
2023/12/01 01:32:49;;;;;;;61.97;27.23;;;3.20;1.00;;;;;;5010798;28;20183;-89
2023/12/01 01:35:15;;;;;;;61.13;28.77;;;3.30;1.00;;;;;;5011039;28;20269;-89
2023/12/01 01:37:41;;;;;;;54.22;26.05;;;3.30;1.00;;;;;;5004785;28;20203;-89
2023/12/01 01:40:11;;;;;;;63.13;26.70;;;3.20;1.00;;;;;;5016899;28;20186;-89
2023/12/01 01:42:37;;;;;;;57.88;27.20;;;3.20;1.00;;;;;;5013118;28;20194;-89
2023/12/01 01:45:03;;;;;;;59.33;27.00;;;3.10;1.00;;;;;;5009829;28;20184;-90
2023/12/01 01:47:29;;;;;;;61.60;26.75;;;3.10;1.00;;;;;;5012551;28;20203;-89
2023/12/01 01:49:55;;;;;;;71.67;27.87;;;3.10;1.00;;;;;;5013198;28;20274;-89
2023/12/01 01:52:22;;;;;;;86.65;32.00;;;3.10;1.00;;;;;;5012545;28;20230;-89
2023/12/01 01:54:48;;;;;;;79.93;29.52;;;3.10;1.00;;;;;;5013358;28;20621;-89
2023/12/01 01:57:13;;;;;;;76.70;30.30;;;3.10;99.90;;;;;;5012155;28;20202;-90
2023/12/01 01:59:39;;;;;;;75.63;27.93;;;3.10;99.90;;;;;;5012207;28;20286;-89
2023/12/01 02:02:05;;;;;;;65.17;26.37;;;3.20;99.90;;;;;;5012197;28;20298;-89
2023/12/01 02:04:31;;;;;;;69.40;28.83;;;3.10;1.00;;;;;;5013495;28;20218;-89
2023/12/01 02:06:56;;;;;;;56.77;23.00;;;3.10;1.00;;;;;;5015007;28;20180;-88
2023/12/01 02:09:22;;;;;;;63.77;28.03;;;3.00;1.00;;;;;;5013723;28;20179;-90
2023/12/01 02:11:48;;;;;;;55.97;26.80;;;3.00;1.00;;;;;;5013456;28;20179;-89
2023/12/01 02:14:14;;;;;;;67.23;26.73;;;3.00;1.00;;;;;;5021150;28;20665;-90
2023/12/01 02:16:45;;;;;;;69.80;26.67;;;3.00;1.00;;;;;;5012392;28;20226;-89
2023/12/01 02:19:14;;;;;;;67.55;27.98;;;3.00;52.70;;;;;;5013230;28;20187;-89
2023/12/01 02:21:47;;;;;;;61.50;27.58;;;3.10;59.00;;;;;;5013083;28;20188;-89
2023/12/01 02:24:13;;;;;;;70.57;29.13;;;3.10;72.50;;;;;;5010319;28;20218;-90
2023/12/01 02:26:39;;;;;;;68.55;27.98;;;3.10;48.40;;;;;;5011522;28;20283;-90
2023/12/01 02:29:05;;;;;;;77.05;30.38;;;3.20;1.00;;;;;;5010713;28;20182;-90
2023/12/01 02:31:31;;;;;;;76.70;30.27;;;3.10;1.00;;;;;;5010626;28;20282;-90
2023/12/01 02:33:57;;;;;;;61.77;27.10;;;3.20;9.50;;;;;;5012751;28;20291;-88
2023/12/01 02:36:23;;;;;;;83.00;29.20;;;3.20;25.00;;;;;;5011717;28;20438;-89
2023/12/01 02:38:48;;;;;;;67.93;29.10;;;3.20;19.10;;;;;;5013471;28;20207;-90
2023/12/01 02:41:15;;;;;;;84.87;29.37;;;3.20;1.00;;;;;;5012394;28;20281;-90
2023/12/01 02:43:41;;;;;;;87.00;32.42;;;3.20;1.00;;;;;;5010773;28;20215;-90
2023/12/01 02:46:07;;;;;;;71.87;30.03;;;3.20;1.00;;;;;;5009285;28;20535;-89
2023/12/01 02:48:32;;;;;;;78.90;29.20;;;3.20;1.00;;;;;;5011978;28;20688;-90
2023/12/01 02:50:58;;;;;;;72.17;29.00;;;3.20;1.00;;;;;;5009319;28;20679;-89
2023/12/01 02:53:24;;;;;;;71.33;29.70;;;3.20;1.00;;;;;;5011750;28;20731;-90
2023/12/01 02:55:49;;;;;;;76.10;31.17;;;3.20;1.00;;;;;;5018396;28;20175;-89
2023/12/01 02:58:15;;;;;;;60.63;27.77;;;3.20;1.00;;;;;;5026386;28;20252;-90
2023/12/01 03:00:43;;;;;;;80.97;30.93;;;3.20;1.00;;;;;;5017764;28;20258;-89
2023/12/01 03:03:09;;;;;;;79.47;29.33;;;3.20;1.00;;;;;;5012434;28;20206;-89
2023/12/01 03:05:35;;;;;;;66.60;29.98;;;3.20;1.00;;;;;;5018285;28;20191;-90
2023/12/01 03:08:01;;;;;;;65.60;29.20;;;3.10;1.00;;;;;;5025179;28;20206;-89
2023/12/01 03:10:26;;;;;;;68.93;28.80;;;3.00;1.00;;;;;;5026088;28;20195;-89
2023/12/01 03:12:52;;;;;;;70.40;29.47;;;3.00;1.00;;;;;;5013887;28;20576;-90
2023/12/01 03:15:20;;;;;;;66.60;27.63;;;3.00;1.00;;;;;;5016766;28;20233;-90
2023/12/01 03:17:46;;;;;;;72.00;28.75;;;3.00;1.00;;;;;;5010650;28;20241;-90
2023/12/01 03:20:14;;;;;;;69.00;29.52;;;3.00;1.00;;;;;;5015886;28;20179;-89
2023/12/01 03:22:43;;;;;;;68.63;27.20;;;2.90;1.00;;;;;;5018333;28;20175;-90
2023/12/01 03:25:11;;;;;;;64.13;27.33;;;2.90;1.00;;;;;;5005384;28;20233;-90
2023/12/01 03:27:42;;;;;;;76.55;32.08;;;2.80;1.00;;;;;;5010319;28;20207;-90
2023/12/01 03:30:16;;;;;;;74.40;28.02;;;2.80;1.00;;;;;;5010923;28;20559;-89
2023/12/01 03:32:45;;;;;;;65.10;27.25;;;2.80;17.00;;;;;;5008857;28;20665;-90
2023/12/01 03:35:16;;;;;;;68.93;29.80;;;2.80;74.50;;;;;;5010837;28;20662;-90
2023/12/01 03:37:41;;;;;;;61.63;27.85;;;2.80;3.90;;;;;;5011382;28;20203;-89
2023/12/01 03:40:09;;;;;;;70.17;29.13;;;2.80;19.40;;;;;;5013087;28;20666;-90
2023/12/01 03:42:41;;;;;;;61.30;28.55;;;2.80;1.00;;;;;;5010233;28;20249;-90
2023/12/01 03:45:07;;;;;;;64.25;30.20;;;2.80;28.30;;;;;;5011267;28;20184;-90
2023/12/01 03:47:35;;;;;;;66.60;28.80;;;2.80;92.60;;;;;;5009951;28;20579;-89
2023/12/01 03:50:02;;;;;;;51.70;25.95;;;2.90;99.90;;;;;;5010740;28;20191;-88
2023/12/01 03:52:27;;;;;;;55.13;25.60;;;2.90;43.30;;;;;;5011462;28;21328;-89
2023/12/01 03:54:53;;;;;;;49.37;23.70;;;2.90;1.00;;;;;;5011253;28;20193;-89
2023/12/01 03:57:18;;;;;;;53.93;25.50;;;2.90;1.00;;;;;;5011335;28;20238;-89
2023/12/01 03:59:44;;;;;;;53.13;22.77;;;2.80;1.00;;;;;;5011148;28;20183;-90
2023/12/01 04:02:10;;;;;;;49.90;23.33;;;2.80;1.00;;;;;;5007713;28;20274;-90
2023/12/01 04:04:35;;;;;;;43.50;23.10;;;2.80;99.90;;;;;;5004251;28;20223;-89
2023/12/01 04:07:01;;;;;;;40.87;20.63;;;2.80;1.00;;;;;;5011627;28;20549;-90
2023/12/01 04:09:26;;;;;;;45.93;21.23;;;2.80;99.90;;;;;;5011679;28;20188;-89
2023/12/01 04:11:54;;;;;;;45.67;22.53;;;2.80;99.90;;;;;;5010573;28;20553;-88
2023/12/01 04:14:19;;;;;;;40.83;20.55;;;2.80;99.90;;;;;;5011020;28;20183;-90
2023/12/01 04:16:47;;;;;;;41.47;19.33;;;2.90;99.90;;;;;;5011476;28;20188;-89
2023/12/01 04:19:12;;;;;;;43.97;21.88;;;2.90;1.00;;;;;;5009022;28;20206;-89
2023/12/01 04:21:38;;;;;;;41.63;21.83;;;2.90;1.00;;;;;;5010778;28;20752;-89
2023/12/01 04:24:06;;;;;;;45.57;22.53;;;2.90;99.90;;;;;;5010951;28;20203;-87
2023/12/01 04:26:32;;;;;;;41.17;20.77;;;2.90;99.90;;;;;;5009677;28;20186;-88
2023/12/01 04:28:57;;;;;;;47.87;22.93;;;3.00;99.90;;;;;;5010871;28;20206;-90
2023/12/01 04:31:23;;;;;;;50.00;23.83;;;3.00;1.00;;;;;;5010805;28;20828;-89
2023/12/01 04:33:48;;;;;;;48.00;23.17;;;3.00;1.00;;;;;;5009426;28;20198;-90
2023/12/01 04:36:14;;;;;;;43.90;21.97;;;2.90;91.40;;;;;;5009613;28;20184;-89
2023/12/01 04:38:40;;;;;;;46.03;22.33;;;2.90;99.90;;;;;;5012307;28;20215;-89
2023/12/01 04:41:09;;;;;;;51.90;24.43;;;2.80;1.00;;;;;;5011223;28;20237;-90
2023/12/01 04:43:37;;;;;;;45.22;21.75;;;2.70;1.00;;;;;;5008716;28;20238;-89
2023/12/01 04:46:03;;;;;;;42.95;21.13;;;2.60;1.00;;;;;;5009207;28;20190;-89
2023/12/01 04:48:29;;;;;;;47.60;22.30;;;2.50;1.00;;;;;;5008649;28;20587;-89
2023/12/01 04:50:54;;;;;;;45.07;21.83;;;2.50;1.00;;;;;;5011569;28;20201;-89
2023/12/01 04:53:20;;;;;;;41.37;21.13;;;2.50;99.90;;;;;;5009405;28;20198;-89
2023/12/01 04:55:46;;;;;;;39.40;22.67;;;2.50;1.00;;;;;;5010890;28;20198;-90
2023/12/01 04:58:12;;;;;;;50.83;23.48;;;2.50;1.00;;;;;;5013308;28;20275;-90
2023/12/01 05:00:38;;;;;;;48.03;24.83;;;2.50;1.00;;;;;;5018405;28;20179;-90
2023/12/01 05:03:07;;;;;;;53.13;23.90;;;2.50;1.00;;;;;;5023315;28;20309;-90
2023/12/01 05:05:34;;;;;;;51.08;23.23;;;2.60;1.00;;;;;;5012457;28;20455;-90
2023/12/01 05:08:04;;;;;;;45.83;23.17;;;2.60;1.00;;;;;;5011793;28;20696;-90
2023/12/01 05:10:35;;;;;;;48.80;23.65;;;2.60;1.00;;;;;;5013325;28;20195;-89
2023/12/01 05:13:05;;;;;;;44.28;22.42;;;2.50;1.00;;;;;;5018301;28;20320;-90
2023/12/01 05:15:33;;;;;;;42.10;20.48;;;2.60;99.90;;;;;;5021186;28;20187;-90
2023/12/01 05:18:00;;;;;;;42.13;21.05;;;2.60;1.00;;;;;;5024987;28;20210;-89
2023/12/01 05:20:27;;;;;;;49.13;23.30;;;2.60;1.00;;;;;;5018963;28;20184;-88
2023/12/01 05:23:09;;;;;;;43.53;21.73;;;2.70;1.00;;;;;;5015901;28;20191;-87
2023/12/01 05:25:37;;;;;;;41.97;21.30;;;2.70;1.00;;;;;;5006656;28;20175;-88
2023/12/01 05:28:08;;;;;;;44.58;20.63;;;2.70;1.00;;;;;;5011896;28;20294;-89
2023/12/01 05:30:36;;;;;;;43.53;21.20;;;2.70;99.90;;;;;;5027994;28;20182;-89
2023/12/01 05:33:04;;;;;;;37.92;21.70;;;2.70;99.90;;;;;;5014795;28;20647;-88
2023/12/01 05:35:30;;;;;;;37.45;20.98;;;2.70;99.90;;;;;;5014787;28;20667;-89
2023/12/01 05:37:57;;;;;;;54.97;24.00;;;2.70;99.90;;;;;;5013819;28;20215;-88
2023/12/01 05:40:29;;;;;;;47.08;22.95;;;2.70;1.00;;;;;;5015369;28;20442;-88
2023/12/01 05:42:57;;;;;;;47.47;24.02;;;2.80;1.00;;;;;;5010906;28;20195;-88
2023/12/01 05:45:26;;;;;;;46.60;22.23;;;2.80;99.90;;;;;;5011719;28;20540;-88
2023/12/01 05:47:53;;;;;;;47.95;23.35;;;2.80;1.00;;;;;;5014303;28;20214;-89
2023/12/01 05:50:27;;;;;;;47.45;23.02;;;2.80;1.00;;;;;;5013606;28;20212;-89
2023/12/01 05:52:55;;;;;;;51.60;23.42;;;2.80;29.00;;;;;;5013748;28;20230;-88
2023/12/01 05:55:22;;;;;;;47.47;22.85;;;2.80;99.90;;;;;;5012483;28;20673;-88
2023/12/01 05:57:52;;;;;;;44.22;21.08;;;2.80;1.00;;;;;;5015692;28;20204;-87
2023/12/01 06:00:24;;;;;;;44.10;23.00;;;2.90;1.00;;;;;;5014083;28;20571;-88
2023/12/01 06:02:51;;;;;;;45.33;24.83;;;2.80;1.00;;;;;;5013860;28;20191;-88
2023/12/01 06:05:20;;;;;;;48.63;22.45;;;2.80;1.00;;;;;;5016327;28;20192;-88
2023/12/01 06:07:52;;;;;;;42.58;21.08;;;2.80;1.00;;;;;;5014222;28;20195;-88
2023/12/01 06:10:18;;;;;;;44.55;23.25;;;2.80;1.00;;;;;;5007289;28;20180;-88
2023/12/01 06:12:44;;;;;;;43.05;22.50;;;2.80;99.90;;;;;;5005985;28;20194;-89
2023/12/01 06:15:12;;;;;;;43.55;22.40;;;2.80;1.00;;;;;;5014081;28;20194;-87
2023/12/01 06:17:39;;;;;;;41.72;21.60;;;2.80;99.90;;;;;;5012918;28;20708;-88
2023/12/01 06:20:16;;;;;;;38.78;20.50;;;2.80;99.90;;;;;;5013332;28;20650;-89
2023/12/01 06:22:46;;;;;;;40.92;19.95;;;2.80;1.00;;;;;;5013868;28;20171;-89
2023/12/01 06:25:12;;;;;;;42.15;22.45;;;2.80;99.90;;;;;;5013344;28;20191;-88
2023/12/01 06:27:40;;;;;;;49.75;22.13;;;2.80;1.00;;;;;;5014194;28;20211;-88
2023/12/01 06:30:11;;;;;;;42.00;22.60;;;2.70;99.90;;;;;;5012061;28;20187;-87
2023/12/01 06:32:40;;;;;;;42.13;22.52;;;2.80;1.00;;;;;;5013713;28;20203;-88
2023/12/01 06:35:09;;;;;;;39.35;21.52;;;2.80;99.90;;;;;;5014293;28;20190;-89
2023/12/01 06:37:34;;;;;;;47.40;22.90;;;2.80;1.00;;;;;;5014181;28;20579;-88
2023/12/01 06:40:00;;;;;;;53.00;24.57;;;2.90;1.00;;;;;;5012967;28;20266;-89
2023/12/01 06:42:25;;;;;;;44.00;23.40;;;2.80;1.00;;;;;;5006380;28;20207;-89
2023/12/01 06:44:51;;;;;;;48.00;22.00;;;2.80;1.00;;;;;;5013203;28;20218;-87
2023/12/01 06:47:16;;;;;;;50.13;26.27;;;2.70;1.00;;;;;;5009423;28;20211;-87
2023/12/01 06:49:42;;;;;;;53.53;25.03;;;2.70;99.70;;;;;;5010234;28;20187;-88
2023/12/01 06:52:08;;;;;;;62.93;24.37;;;2.70;99.90;;;;;;5008712;28;20199;-87
2023/12/01 06:54:33;;;;;;;49.30;23.43;;;2.60;99.90;;;;;;5006235;28;20229;-88
2023/12/01 06:56:59;;;;;;;49.03;22.37;;;2.60;26.30;;;;;;5012121;28;21027;-87
2023/12/01 06:59:24;;;;;;;49.00;24.20;;;2.60;1.00;;;;;;5012452;28;20191;-88
2023/12/01 07:01:50;;;;;;;49.20;24.33;;;2.60;1.00;;;;;;5029457;28;20195;-87
2023/12/01 07:04:15;;;;;;;48.90;22.20;;;2.50;1.00;;;;;;5014433;28;20207;-88
2023/12/01 07:06:46;;;;;;;47.43;22.80;;;2.60;1.00;;;;;;5025158;28;20186;-85
2023/12/01 07:09:17;;;;;;;45.92;21.67;;;2.60;1.00;;;;;;5019399;28;20565;-87
2023/12/01 07:11:44;;;;;;;45.75;20.10;;;2.70;1.00;;;;;;5021096;28;20182;-88
2023/12/01 07:14:12;;;;;;;49.17;22.83;;;2.80;1.00;;;;;;5020271;28;20172;-88
2023/12/01 07:16:41;;;;;;;47.20;21.35;;;2.90;1.00;;;;;;5021942;28;20726;-88
2023/12/01 07:19:07;;;;;;;46.70;24.58;;;3.00;99.90;;;;;;5010655;28;20566;-88
2023/12/01 07:21:33;;;;;;;44.30;22.85;;;3.10;99.90;;;;;;5011181;28;20183;-88
2023/12/01 07:23:58;;;;;;;51.07;24.27;;;3.10;97.00;;;;;;5008044;28;20203;-88
2023/12/01 07:26:28;;;;;;;46.40;24.30;;;3.10;1.00;;;;;;5015832;28;20544;-88
2023/12/01 07:28:53;;;;;;;42.47;22.92;;;3.20;1.00;;;;;;5009821;28;20207;-88
2023/12/01 07:31:19;;;;;;;51.10;24.83;;;3.20;1.00;;;;;;5009641;28;20637;-88
2023/12/01 07:34:01;;;;;;;50.37;23.90;;;3.10;1.00;;;;;;5006404;28;20183;-88
2023/12/01 07:36:43;;;;;;;43.92;23.05;;;3.10;1.00;;;;;;5007965;28;20678;-88
2023/12/01 07:39:11;;;;;;;47.50;23.02;;;3.20;99.90;;;;;;5013471;28;20187;-87
2023/12/01 07:41:44;;;;;;;41.40;21.13;;;3.20;99.90;;;;;;5009506;28;20580;-88
2023/12/01 07:44:38;;;;;;;48.22;25.77;;;3.30;44.60;;;;;;5008191;28;20287;-87
2023/12/01 07:47:08;;;;;;;48.75;23.05;;;3.30;27.60;;;;;;5005566;28;20226;-89
2023/12/01 07:49:34;;;;;;;44.40;24.05;;;3.30;1.00;;;;;;5010506;28;20270;-89
2023/12/01 07:52:01;;;;;;;49.03;24.38;;;3.30;1.00;;;;;;5007523;28;20202;-88
2023/12/01 07:54:28;;;;;;;48.13;23.00;;;3.30;1.00;;;;;;5009615;28;20183;-88
2023/12/01 07:56:53;;;;;;;41.47;20.13;;;3.30;1.00;;;;;;5011619;28;20580;-87
2023/12/01 07:59:21;;;;;;;47.40;22.90;;;3.40;1.00;;;;;;5010952;28;20184;-88
2023/12/01 08:01:47;;;;;;;46.53;23.45;;;3.40;1.00;;;;;;5011402;28;20183;-88
2023/12/01 08:04:13;;;;;;;44.25;24.65;;;3.40;1.00;;;;;;5012795;28;20207;-88
2023/12/01 08:06:39;;;;;;;44.90;23.38;;;3.40;1.00;;;;;;5018739;28;20187;-88
2023/12/01 08:09:04;;;;;;;48.77;24.60;;;3.50;1.00;;;;;;5008378;28;20225;-89
2023/12/01 08:11:30;;;;;;;39.40;18.63;;;3.50;1.00;;;;;;5010451;28;20183;-88
2023/12/01 08:13:56;;;;;;;33.70;19.50;;;3.50;99.90;;;;;;5020281;28;20191;-86
2023/12/01 08:16:22;;;;;;;39.43;20.47;;;3.50;38.90;;;;;;5012900;28;20334;-87
2023/12/01 08:18:47;;;;;;;41.83;19.83;;;3.50;99.90;;;;;;5008499;28;20461;-87
2023/12/01 08:21:14;;;;;;;45.95;20.05;;;3.50;99.90;;;;;;4999320;28;20207;-89
2023/12/01 08:23:43;;;;;;;37.35;20.95;;;3.60;93.60;;;;;;5009200;28;20567;-88
2023/12/01 08:26:11;;;;;;;45.55;21.95;;;3.60;99.90;;;;;;5008245;28;20179;-86
2023/12/01 08:28:40;;;;;;;48.97;24.20;;;3.60;99.90;;;;;;5008540;28;20207;-88
2023/12/01 08:31:05;;;;;;;49.15;22.85;;;3.70;99.90;;;;;;4995828;28;20184;-88
2023/12/01 08:33:31;;;;;;;44.90;23.10;;;3.70;99.90;;;;;;5010920;28;20206;-87
2023/12/01 08:35:56;;;;;;;38.60;20.20;;;3.70;47.90;;;;;;5009648;28;20183;-86
2023/12/01 08:38:22;;;;;;;40.27;21.27;;;3.70;53.40;;;;;;5014226;28;20681;-87
2023/12/01 08:40:47;;;;;;;34.90;18.47;;;3.60;1.00;;;;;;5014496;28;20187;-87
2023/12/01 08:43:13;;;;;;;38.97;19.30;;;3.70;1.00;;;;;;5014955;28;20211;-87
2023/12/01 08:45:39;;;;;;;35.83;18.63;;;3.70;1.00;;;;;;5016772;28;20191;-86
2023/12/01 08:48:04;;;;;;;36.97;17.93;;;3.70;1.00;;;;;;5014854;28;20685;-87
2023/12/01 08:50:30;;;;;;;35.70;19.50;;;3.70;1.00;;;;;;5017504;28;20282;-88
2023/12/01 08:52:55;;;;;;;33.70;18.57;;;3.70;1.00;;;;;;5018156;28;20427;-88
2023/12/01 08:55:21;;;;;;;38.93;17.73;;;3.70;1.00;;;;;;5019915;28;20179;-87
2023/12/01 08:57:46;;;;;;;35.73;18.57;;;3.70;1.00;;;;;;5019318;28;20199;-87
2023/12/01 09:00:14;;;;;;;27.43;16.33;;;3.80;1.00;;;;;;5021652;28;20467;-87
2023/12/01 09:02:40;;;;;;;31.63;17.73;;;3.90;1.00;;;;;;5021586;28;20179;-87
2023/12/01 09:05:09;;;;;;;35.13;20.30;;;3.90;1.00;;;;;;5022030;28;20705;-88
2023/12/01 09:07:35;;;;;;;37.55;19.38;;;3.90;99.90;;;;;;5015922;28;20207;-87
2023/12/01 09:10:00;;;;;;;35.13;17.73;;;3.90;1.00;;;;;;5018799;28;20187;-88
2023/12/01 09:12:26;;;;;;;37.17;20.60;;;4.00;1.00;;;;;;5020170;28;20187;-88
2023/12/01 09:14:54;;;;;;;37.13;20.17;;;4.00;1.00;;;;;;5010465;28;20191;-86
2023/12/01 09:17:20;;;;;;;34.38;17.38;;;4.00;1.00;;;;;;5021049;28;20215;-88
2023/12/01 09:19:48;;;;;;;31.90;17.27;;;4.00;1.00;;;;;;5020638;28;20285;-87
2023/12/01 09:22:23;;;;;;;31.02;17.50;;;4.10;1.00;;;;;;5014698;28;20653;-88
2023/12/01 09:24:48;;;;;;;35.00;19.20;;;4.10;1.00;;;;;;5017018;28;20233;-88
2023/12/01 09:27:19;;;;;;;38.43;20.53;;;4.10;1.00;;;;;;5017789;28;20203;-86
2023/12/01 09:29:45;;;;;;;29.83;16.63;;;4.10;1.00;;;;;;5018334;28;20222;-87
2023/12/01 09:32:13;;;;;;;40.33;17.20;;;4.10;1.00;;;;;;5020212;28;20191;-88
2023/12/01 09:34:39;;;;;;;27.42;15.90;;;4.10;1.00;;;;;;5020492;28;20217;-88
2023/12/01 09:37:04;;;;;;;26.77;15.70;;;4.00;1.00;;;;;;5019706;28;20203;-86
2023/12/01 09:39:30;;;;;;;28.30;15.27;;;4.00;1.00;;;;;;5019063;28;20256;-86
2023/12/01 09:41:57;;;;;;;27.67;14.57;;;4.00;1.00;;;;;;5019880;28;20183;-87
2023/12/01 09:44:27;;;;;;;21.75;13.20;;;3.90;1.00;;;;;;5018625;28;20288;-88
2023/12/01 09:46:58;;;;;;;23.73;14.05;;;3.90;1.00;;;;;;5021026;28;20191;-87
2023/12/01 09:49:34;;;;;;;20.25;12.02;;;3.80;1.00;;;;;;5016585;28;20179;-87
2023/12/01 09:52:08;;;;;;;22.80;12.38;;;3.80;1.00;;;;;;5022769;28;20183;-87
2023/12/01 09:54:33;;;;;;;19.55;12.15;;;3.80;1.00;;;;;;5021002;28;20202;-87
2023/12/01 09:57:06;;;;;;;21.30;12.93;;;3.70;1.00;;;;;;5019924;28;20191;-85
2023/12/01 09:59:38;;;;;;;19.70;12.43;;;3.70;1.00;;;;;;5017902;28;20184;-88
2023/12/01 10:02:03;;;;;;;19.95;12.10;;;3.60;1.00;;;;;;5016748;28;20187;-87
2023/12/01 10:04:30;;;;;;;21.60;11.90;;;3.70;1.00;;;;;;5016619;28;20603;-87
2023/12/01 10:07:00;;;;;;;23.55;11.48;;;3.60;1.00;;;;;;5014707;28;20183;-87
2023/12/01 10:09:35;;;;;;;14.32;9.80;;;3.70;1.00;;;;;;5015904;28;20183;-87
2023/12/01 10:12:11;;;;;;;19.95;12.32;;;3.60;1.00;;;;;;5017974;28;20186;-88
2023/12/01 10:14:37;;;;;;;23.30;12.40;;;3.60;1.00;;;;;;5015538;28;20197;-88
2023/12/01 10:17:09;;;;;;;21.85;13.02;;;3.60;1.00;;;;;;5022177;28;21150;-88
2023/12/01 10:19:45;;;;;;;22.08;12.30;;;3.60;1.00;;;;;;5017271;28;20191;-87
2023/12/01 10:22:13;;;;;;;22.02;12.93;;;3.60;1.00;;;;;;5017173;28;20234;-87
2023/12/01 10:24:56;;;;;;;24.77;13.30;;;3.40;1.00;;;;;;5026677;28;20214;-86
2023/12/01 10:27:22;;;;;;;23.05;13.00;;;3.40;1.00;;;;;;5016053;28;20199;-88
2023/12/01 10:29:48;;;;;;;22.97;12.60;;;3.40;93.20;;;;;;5019017;28;20198;-88
2023/12/01 10:32:17;;;;;;;28.40;15.00;;;3.50;99.90;;;;;;5021537;28;20180;-87
2023/12/01 10:34:54;;;;;;;24.65;12.95;;;3.50;99.90;;;;;;5014855;28;20262;-87
2023/12/01 10:37:21;;;;;;;25.63;14.75;;;3.50;76.30;;;;;;5014849;28;20207;-86
2023/12/01 10:39:51;;;;;;;26.40;14.32;;;3.30;1.00;;;;;;5021542;28;20198;-87
2023/12/01 10:42:18;;;;;;;26.17;15.10;;;3.20;60.90;;;;;;5020221;28;20187;-86
2023/12/01 10:44:47;;;;;;;26.25;13.25;;;3.20;99.90;;;;;;5009031;28;20238;-87
2023/12/01 10:47:16;;;;;;;26.15;14.55;;;3.20;99.90;;;;;;5013660;28;20195;-87
2023/12/01 10:49:44;;;;;;;27.05;13.63;;;3.10;99.90;;;;;;5018407;28;20312;-87
2023/12/01 10:52:12;;;;;;;29.33;14.85;;;3.00;99.90;;;;;;5022049;28;20179;-87
2023/12/01 10:54:43;;;;;;;29.20;14.50;;;3.00;99.90;;;;;;5023867;28;20175;-87
2023/12/01 10:57:19;;;;;;;23.70;13.15;;;3.00;99.90;;;;;;5026245;28;20238;-88
2023/12/01 10:59:51;;;;;;;23.98;13.00;;;3.10;1.00;;;;;;5022438;28;20187;-87
2023/12/01 11:02:20;;;;;;;28.25;13.40;;;3.10;99.90;;;;;;5021839;28;20195;-88
2023/12/01 11:04:47;;;;;;;25.65;12.60;;;3.10;99.90;;;;;;5023125;28;20294;-86
2023/12/01 11:07:54;;;;;;;24.45;13.02;;;3.10;1.00;;;;;;5019437;28;20451;-87
2023/12/01 11:11:11;;;;;;;29.88;11.52;;;3.10;1.00;;;;;;5015451;28;20242;-87
2023/12/01 11:14:18;;;;;;;23.80;12.30;;;3.20;99.90;;;;;;5020691;28;20184;-87
2023/12/01 11:16:50;;;;;;;25.27;12.82;;;3.20;99.90;;;;;;5015592;28;20266;-87
2023/12/01 11:19:18;;;;;;;18.55;12.18;;;3.20;99.90;;;;;;5020002;28;20265;-87
2023/12/01 11:22:00;;;;;;;17.33;10.77;;;3.20;99.90;;;;;;5019835;28;20198;-88
2023/12/01 11:24:32;;;;;;;20.48;11.85;;;3.10;16.10;;;;;;5020627;28;20625;-88
2023/12/01 11:27:03;;;;;;;23.70;12.98;;;3.10;99.70;;;;;;5024089;28;20202;-86
2023/12/01 11:29:30;;;;;;;24.77;11.93;;;3.00;32.60;;;;;;5022335;28;20185;-86
2023/12/01 11:31:58;;;;;;;20.98;12.15;;;3.10;1.00;;;;;;5020952;28;20198;-86
2023/12/01 11:34:25;;;;;;;19.83;12.25;;;3.10;1.00;;;;;;5020854;28;20195;-88
2023/12/01 11:37:00;;;;;;;20.08;12.52;;;3.20;1.00;;;;;;5021203;28;20183;-86
2023/12/01 11:39:27;;;;;;;19.33;10.77;;;3.20;1.00;;;;;;5019586;28;20172;-88
2023/12/01 11:42:01;;;;;;;19.45;11.02;;;3.20;1.00;;;;;;5023711;28;20183;-87
2023/12/01 11:44:37;;;;;;;17.35;10.23;;;3.30;1.00;;;;;;5019173;28;20242;-86
2023/12/01 11:47:07;;;;;;;21.25;9.82;;;3.30;1.00;;;;;;5021419;28;20218;-87
2023/12/01 11:49:38;;;;;;;16.60;10.60;;;3.30;99.90;;;;;;5024791;28;20632;-87
2023/12/01 11:52:14;;;;;;;15.75;10.02;;;3.30;99.90;;;;;;5017767;28;20214;-88
2023/12/01 11:54:52;;;;;;;24.58;10.90;;;3.40;99.90;;;;;;5016887;28;20196;-87
2023/12/01 11:57:26;;;;;;;17.27;9.68;;;3.50;99.90;;;;;;5018811;28;20230;-87
2023/12/01 11:59:55;;;;;;;23.48;10.13;;;3.50;99.90;;;;;;5023739;28;20572;-87
2023/12/01 12:02:31;;;;;;;18.25;10.40;;;3.50;99.90;;;;;;5019732;28;20245;-86
2023/12/01 12:05:00;;;;;;;14.95;9.73;;;3.50;99.90;;;;;;5023654;28;20272;-88
2023/12/01 12:07:29;;;;;;;15.30;8.88;;;3.50;99.90;;;;;;5020791;28;20199;-88
2023/12/01 12:10:01;;;;;;;22.60;10.20;;;3.50;99.90;;;;;;5017271;28;20184;-87
2023/12/01 12:12:27;;;;;;;21.30;12.95;;;3.50;99.90;;;;;;5020505;28;20188;-87
2023/12/01 12:14:57;;;;;;;16.55;9.75;;;3.60;99.90;;;;;;5022556;28;20233;-87
2023/12/01 12:17:23;;;;;;;12.02;8.93;;;3.60;98.00;;;;;;5025240;28;20301;-88
2023/12/01 12:19:58;;;;;;;15.73;9.50;;;3.60;56.80;;;;;;5032042;28;20190;-87
2023/12/01 12:22:24;;;;;;;17.33;9.50;;;3.60;91.20;;;;;;5021216;28;20194;-87
2023/12/01 12:24:51;;;;;;;12.18;8.38;;;3.70;99.90;;;;;;5019260;28;20204;-87
2023/12/01 12:27:20;;;;;;;14.02;8.23;;;3.70;1.00;;;;;;5012651;28;20681;-88
2023/12/01 12:29:52;;;;;;;16.55;8.70;;;3.70;1.00;;;;;;5016520;28;20241;-87
2023/12/01 12:32:22;;;;;;;16.17;9.35;;;3.80;1.00;;;;;;5021011;28;20190;-88
2023/12/01 12:34:52;;;;;;;13.30;8.90;;;3.90;1.00;;;;;;5021054;28;20666;-86
2023/12/01 12:37:18;;;;;;;14.60;9.02;;;4.00;1.00;;;;;;5035073;28;20207;-87
2023/12/01 12:39:44;;;;;;;15.70;9.07;;;4.10;1.00;;;;;;5008406;28;20179;-88
2023/12/01 12:42:14;;;;;;;14.83;9.20;;;4.10;1.00;;;;;;5033760;28;20186;-87
2023/12/01 12:44:43;;;;;;;12.35;8.43;;;4.10;1.00;;;;;;5022082;28;20211;-87
2023/12/01 12:47:09;;;;;;;12.32;8.60;;;4.20;1.00;;;;;;5006592;28;20294;-87